Terminal Aerodrome Forecast
Issued by NWS

Home | Current Version | Previous Version | Text Only | Print | Product List | Glossary On
Versions: 1 2 3 4 5 6 7 8 9 10 11 12 13 14 15 16 17 18 19 20 21 22 23
729
FTUS45 KRIW 191738
TAFPNA
TAF
KPNA 191738Z 1918/2018 18005KT P6SM SCT040 BKN060 WS020/24030KT
     FM192000 13008KT 3SM -SN OVC028
     FM200000 30012KT 2SM -SN OVC018
     FM200700 35007KT 6SM -SN OVC024
      AMD LTD TO CLD VIS AND WIND=

USA.gov is the U.S. government's official web portal to all federal, state and local government web resources and services.